sensor_id;sensor_type;location;lat;lon;timestamp;temperature;humidity
22139;DHT22;25815;52.582;13.408;2024-03-02T00:01:10;7.10;99.90
22139;DHT22;25815;52.582;13.408;2024-03-02T00:03:37;7.10;99.90
22139;DHT22;25815;52.582;13.408;2024-03-02T00:06:03;7.10;99.90
22139;DHT22;25815;52.582;13.408;2024-03-02T00:08:30;7.10;99.90
22139;DHT22;25815;52.582;13.408;2024-03-02T00:10:59;7.10;99.90
22139;DHT22;25815;52.582;13.408;2024-03-02T00:13:25;7.10;99.90
22139;DHT22;25815;52.582;13.408;2024-03-02T00:15:55;7.10;99.90
22139;DHT22;25815;52.582;13.408;2024-03-02T00:20:54;7.10;99.90
22139;DHT22;25815;52.582;13.408;2024-03-02T00:23:21;7.10;99.90
22139;DHT22;25815;52.582;13.408;2024-03-02T00:25:49;7.10;99.90
22139;DHT22;25815;52.582;13.408;2024-03-02T00:28:23;7.20;99.90
22139;DHT22;25815;52.582;13.408;2024-03-02T00:31:04;7.10;99.90
22139;DHT22;25815;52.582;13.408;2024-03-02T00:36:05;7.20;99.90
22139;DHT22;25815;52.582;13.408;2024-03-02T00:38:31;7.30;99.90
22139;DHT22;25815;52.582;13.408;2024-03-02T00:41:04;7.30;99.90
22139;DHT22;25815;52.582;13.408;2024-03-02T00:46:10;7.30;99.90
22139;DHT22;25815;52.582;13.408;2024-03-02T00:48:36;7.30;99.90
22139;DHT22;25815;52.582;13.408;2024-03-02T00:51:03;7.30;99.90
22139;DHT22;25815;52.582;13.408;2024-03-02T00:53:29;7.30;99.90
22139;DHT22;25815;52.582;13.408;2024-03-02T00:55:56;7.30;99.90
22139;DHT22;25815;52.582;13.408;2024-03-02T00:58:22;7.30;99.90
22139;DHT22;25815;52.582;13.408;2024-03-02T01:00:48;7.30;99.90
22139;DHT22;25815;52.582;13.408;2024-03-02T01:03:13;7.30;99.90
22139;DHT22;25815;52.582;13.408;2024-03-02T01:05:42;7.30;99.90
22139;DHT22;25815;52.582;13.408;2024-03-02T01:08:09;7.30;99.90
22139;DHT22;25815;52.582;13.408;2024-03-02T01:10:34;7.30;99.90
22139;DHT22;25815;52.582;13.408;2024-03-02T01:13:00;7.30;99.90
22139;DHT22;25815;52.582;13.408;2024-03-02T01:15:25;7.30;99.90
22139;DHT22;25815;52.582;13.408;2024-03-02T01:17:51;7.30;99.90
22139;DHT22;25815;52.582;13.408;2024-03-02T01:20:17;7.30;99.90
22139;DHT22;25815;52.582;13.408;2024-03-02T01:22:42;7.40;99.90
22139;DHT22;25815;52.582;13.408;2024-03-02T01:25:09;7.40;99.90
22139;DHT22;25815;52.582;13.408;2024-03-02T01:27:34;7.40;99.90
22139;DHT22;25815;52.582;13.408;2024-03-02T01:30:00;7.40;99.90
22139;DHT22;25815;52.582;13.408;2024-03-02T01:32:26;7.40;99.90
22139;DHT22;25815;52.582;13.408;2024-03-02T01:34:51;7.40;99.90
22139;DHT22;25815;52.582;13.408;2024-03-02T01:37:17;7.40;99.90
22139;DHT22;25815;52.582;13.408;2024-03-02T01:39:42;7.40;99.90
22139;DHT22;25815;52.582;13.408;2024-03-02T01:42:08;7.40;99.90
22139;DHT22;25815;52.582;13.408;2024-03-02T01:44:34;7.40;99.90
22139;DHT22;25815;52.582;13.408;2024-03-02T01:46:59;7.40;99.90
22139;DHT22;25815;52.582;13.408;2024-03-02T01:49:25;7.40;99.90
22139;DHT22;25815;52.582;13.408;2024-03-02T01:51:50;7.40;99.90
22139;DHT22;25815;52.582;13.408;2024-03-02T01:54:16;7.50;99.90
22139;DHT22;25815;52.582;13.408;2024-03-02T01:56:42;7.40;99.90
22139;DHT22;25815;52.582;13.408;2024-03-02T01:59:07;7.40;99.90
22139;DHT22;25815;52.582;13.408;2024-03-02T02:01:33;7.40;99.90
22139;DHT22;25815;52.582;13.408;2024-03-02T02:03:58;7.40;99.90
22139;DHT22;25815;52.582;13.408;2024-03-02T02:06:24;7.40;99.90
22139;DHT22;25815;52.582;13.408;2024-03-02T02:08:50;7.40;99.90
22139;DHT22;25815;52.582;13.408;2024-03-02T02:11:16;7.40;99.90
22139;DHT22;25815;52.582;13.408;2024-03-02T02:13:42;7.40;99.90
22139;DHT22;25815;52.582;13.408;2024-03-02T02:16:08;7.40;99.90
22139;DHT22;25815;52.582;13.408;2024-03-02T02:18:34;7.30;99.90
22139;DHT22;25815;52.582;13.408;2024-03-02T02:21:01;7.40;99.90
22139;DHT22;25815;52.582;13.408;2024-03-02T02:23:27;7.30;99.90
22139;DHT22;25815;52.582;13.408;2024-03-02T02:25:52;7.40;99.90
22139;DHT22;25815;52.582;13.408;2024-03-02T02:28:18;7.40;99.90
22139;DHT22;25815;52.582;13.408;2024-03-02T02:30:43;7.40;99.90
22139;DHT22;25815;52.582;13.408;2024-03-02T02:33:09;7.40;99.90
22139;DHT22;25815;52.582;13.408;2024-03-02T02:35:35;7.40;99.90
22139;DHT22;25815;52.582;13.408;2024-03-02T02:38:01;7.40;99.90
22139;DHT22;25815;52.582;13.408;2024-03-02T02:40:27;7.30;99.90
22139;DHT22;25815;52.582;13.408;2024-03-02T02:42:56;7.30;99.90
22139;DHT22;25815;52.582;13.408;2024-03-02T02:45:22;7.40;99.90
22139;DHT22;25815;52.582;13.408;2024-03-02T02:47:48;7.30;99.90
22139;DHT22;25815;52.582;13.408;2024-03-02T02:50:13;7.40;99.90
22139;DHT22;25815;52.582;13.408;2024-03-02T02:52:40;7.40;99.90
22139;DHT22;25815;52.582;13.408;2024-03-02T02:55:10;7.40;99.90
22139;DHT22;25815;52.582;13.408;2024-03-02T02:57:37;7.40;99.90
22139;DHT22;25815;52.582;13.408;2024-03-02T03:00:11;7.40;99.90
22139;DHT22;25815;52.582;13.408;2024-03-02T03:02:41;7.50;99.90
22139;DHT22;25815;52.582;13.408;2024-03-02T03:05:11;7.50;99.90
22139;DHT22;25815;52.582;13.408;2024-03-02T03:07:39;7.50;99.90
22139;DHT22;25815;52.582;13.408;2024-03-02T03:10:06;7.50;99.90
22139;DHT22;25815;52.582;13.408;2024-03-02T03:12:32;7.60;99.90
22139;DHT22;25815;52.582;13.408;2024-03-02T03:14:58;7.60;99.90
22139;DHT22;25815;52.582;13.408;2024-03-02T03:17:24;7.60;99.90
22139;DHT22;25815;52.582;13.408;2024-03-02T03:19:50;7.70;99.90
22139;DHT22;25815;52.582;13.408;2024-03-02T03:22:16;7.70;99.90
22139;DHT22;25815;52.582;13.408;2024-03-02T03:24:42;7.70;99.90
22139;DHT22;25815;52.582;13.408;2024-03-02T03:27:08;7.70;99.90
22139;DHT22;25815;52.582;13.408;2024-03-02T03:29:33;7.70;99.90
22139;DHT22;25815;52.582;13.408;2024-03-02T03:31:59;7.80;99.90
22139;DHT22;25815;52.582;13.408;2024-03-02T03:34:24;7.80;99.90
22139;DHT22;25815;52.582;13.408;2024-03-02T03:36:50;7.80;99.90
22139;DHT22;25815;52.582;13.408;2024-03-02T03:39:15;7.90;99.90
22139;DHT22;25815;52.582;13.408;2024-03-02T03:41:41;7.90;99.90
22139;DHT22;25815;52.582;13.408;2024-03-02T03:44:06;7.90;99.90
22139;DHT22;25815;52.582;13.408;2024-03-02T03:46:32;8.00;99.90
22139;DHT22;25815;52.582;13.408;2024-03-02T03:48:57;8.00;99.90
22139;DHT22;25815;52.582;13.408;2024-03-02T03:51:23;8.00;99.90
22139;DHT22;25815;52.582;13.408;2024-03-02T03:53:49;8.00;99.90
22139;DHT22;25815;52.582;13.408;2024-03-02T03:56:14;8.00;99.90
22139;DHT22;25815;52.582;13.408;2024-03-02T03:58:40;8.10;99.90
22139;DHT22;25815;52.582;13.408;2024-03-02T04:01:05;8.10;99.90
22139;DHT22;25815;52.582;13.408;2024-03-02T04:03:31;8.10;99.90
22139;DHT22;25815;52.582;13.408;2024-03-02T04:05:56;8.20;99.90
22139;DHT22;25815;52.582;13.408;2024-03-02T04:08:22;8.20;99.90
22139;DHT22;25815;52.582;13.408;2024-03-02T04:10:48;8.20;99.90
22139;DHT22;25815;52.582;13.408;2024-03-02T04:13:13;8.30;99.90
22139;DHT22;25815;52.582;13.408;2024-03-02T04:15:39;8.30;99.90
22139;DHT22;25815;52.582;13.408;2024-03-02T04:18:06;8.30;99.90
22139;DHT22;25815;52.582;13.408;2024-03-02T04:20:31;8.30;99.90
22139;DHT22;25815;52.582;13.408;2024-03-02T04:22:57;8.30;99.90
22139;DHT22;25815;52.582;13.408;2024-03-02T04:25:23;8.30;99.90
22139;DHT22;25815;52.582;13.408;2024-03-02T04:27:48;8.40;99.90
22139;DHT22;25815;52.582;13.408;2024-03-02T04:30:14;8.40;99.90
22139;DHT22;25815;52.582;13.408;2024-03-02T04:32:40;8.40;99.90
22139;DHT22;25815;52.582;13.408;2024-03-02T04:35:06;8.40;99.90
22139;DHT22;25815;52.582;13.408;2024-03-02T04:37:34;8.40;99.90
22139;DHT22;25815;52.582;13.408;2024-03-02T04:40:00;8.40;99.90
22139;DHT22;25815;52.582;13.408;2024-03-02T04:42:26;8.50;99.90
22139;DHT22;25815;52.582;13.408;2024-03-02T04:44:51;8.60;99.90
22139;DHT22;25815;52.582;13.408;2024-03-02T04:47:17;8.50;99.90
22139;DHT22;25815;52.582;13.408;2024-03-02T04:49:42;8.50;99.90
22139;DHT22;25815;52.582;13.408;2024-03-02T04:52:08;8.50;99.90
22139;DHT22;25815;52.582;13.408;2024-03-02T04:54:34;8.50;99.90
22139;DHT22;25815;52.582;13.408;2024-03-02T04:57:20;8.60;99.90
22139;DHT22;25815;52.582;13.408;2024-03-02T04:59:45;8.50;99.90
22139;DHT22;25815;52.582;13.408;2024-03-02T05:02:11;8.50;99.90
22139;DHT22;25815;52.582;13.408;2024-03-02T05:04:39;8.60;99.90
22139;DHT22;25815;52.582;13.408;2024-03-02T05:07:05;8.60;99.90
22139;DHT22;25815;52.582;13.408;2024-03-02T05:09:31;8.60;99.90
22139;DHT22;25815;52.582;13.408;2024-03-02T05:11:56;8.60;99.90
22139;DHT22;25815;52.582;13.408;2024-03-02T05:14:40;8.60;99.90
22139;DHT22;25815;52.582;13.408;2024-03-02T05:17:06;8.60;99.90
22139;DHT22;25815;52.582;13.408;2024-03-02T05:19:31;8.70;99.90
22139;DHT22;25815;52.582;13.408;2024-03-02T05:21:57;8.70;99.90
22139;DHT22;25815;52.582;13.408;2024-03-02T05:24:23;8.80;99.90
22139;DHT22;25815;52.582;13.408;2024-03-02T05:26:48;8.90;99.90
22139;DHT22;25815;52.582;13.408;2024-03-02T05:29:14;8.90;99.90
22139;DHT22;25815;52.582;13.408;2024-03-02T05:31:40;8.90;99.90
22139;DHT22;25815;52.582;13.408;2024-03-02T05:34:05;9.00;99.90
22139;DHT22;25815;52.582;13.408;2024-03-02T05:36:31;9.00;99.90
22139;DHT22;25815;52.582;13.408;2024-03-02T05:38:57;9.00;99.90
22139;DHT22;25815;52.582;13.408;2024-03-02T05:41:23;9.00;99.90
22139;DHT22;25815;52.582;13.408;2024-03-02T05:43:48;9.00;99.90
22139;DHT22;25815;52.582;13.408;2024-03-02T05:46:14;9.00;99.90
22139;DHT22;25815;52.582;13.408;2024-03-02T05:48:40;9.00;99.90
22139;DHT22;25815;52.582;13.408;2024-03-02T05:51:06;9.00;99.90
22139;DHT22;25815;52.582;13.408;2024-03-02T05:53:31;9.00;99.90
22139;DHT22;25815;52.582;13.408;2024-03-02T05:55:57;9.00;99.90
22139;DHT22;25815;52.582;13.408;2024-03-02T05:58:22;9.00;99.90
22139;DHT22;25815;52.582;13.408;2024-03-02T06:00:53;9.00;99.90
22139;DHT22;25815;52.582;13.408;2024-03-02T06:03:20;9.00;99.90
22139;DHT22;25815;52.582;13.408;2024-03-02T06:05:45;9.00;99.90
22139;DHT22;25815;52.582;13.408;2024-03-02T06:08:11;9.00;99.90
22139;DHT22;25815;52.582;13.408;2024-03-02T06:10:36;9.00;99.90
22139;DHT22;25815;52.582;13.408;2024-03-02T06:13:02;9.00;99.90
22139;DHT22;25815;52.582;13.408;2024-03-02T06:15:27;9.00;99.90
22139;DHT22;25815;52.582;13.408;2024-03-02T06:17:53;9.00;99.90
22139;DHT22;25815;52.582;13.408;2024-03-02T06:20:19;8.90;99.90
22139;DHT22;25815;52.582;13.408;2024-03-02T06:22:44;8.90;99.90
22139;DHT22;25815;52.582;13.408;2024-03-02T06:25:10;8.90;99.90
22139;DHT22;25815;52.582;13.408;2024-03-02T06:27:35;9.00;99.90
22139;DHT22;25815;52.582;13.408;2024-03-02T06:30:01;8.90;99.90
22139;DHT22;25815;52.582;13.408;2024-03-02T06:32:27;8.90;99.90
22139;DHT22;25815;52.582;13.408;2024-03-02T06:34:52;8.90;99.90
22139;DHT22;25815;52.582;13.408;2024-03-02T06:37:18;8.90;99.90
22139;DHT22;25815;52.582;13.408;2024-03-02T06:39:44;9.00;99.90
22139;DHT22;25815;52.582;13.408;2024-03-02T06:42:09;8.90;99.90
22139;DHT22;25815;52.582;13.408;2024-03-02T06:44:35;8.90;99.90
22139;DHT22;25815;52.582;13.408;2024-03-02T06:47:00;8.90;99.90
22139;DHT22;25815;52.582;13.408;2024-03-02T06:49:26;8.80;99.90
22139;DHT22;25815;52.582;13.408;2024-03-02T06:51:51;8.80;99.90
22139;DHT22;25815;52.582;13.408;2024-03-02T06:54:17;8.80;99.90
22139;DHT22;25815;52.582;13.408;2024-03-02T06:56:42;8.80;99.90
22139;DHT22;25815;52.582;13.408;2024-03-02T06:59:08;8.70;99.90
22139;DHT22;25815;52.582;13.408;2024-03-02T07:01:33;8.70;99.90
22139;DHT22;25815;52.582;13.408;2024-03-02T07:04:00;8.70;99.90
22139;DHT22;25815;52.582;13.408;2024-03-02T07:06:25;8.80;99.90
22139;DHT22;25815;52.582;13.408;2024-03-02T07:08:51;8.80;99.90
22139;DHT22;25815;52.582;13.408;2024-03-02T07:11:16;8.80;99.90
22139;DHT22;25815;52.582;13.408;2024-03-02T07:13:42;8.90;99.90
22139;DHT22;25815;52.582;13.408;2024-03-02T07:16:07;8.90;99.90
22139;DHT22;25815;52.582;13.408;2024-03-02T07:18:36;8.90;99.90
22139;DHT22;25815;52.582;13.408;2024-03-02T07:21:10;8.90;99.90
22139;DHT22;25815;52.582;13.408;2024-03-02T07:23:36;8.90;99.90
22139;DHT22;25815;52.582;13.408;2024-03-02T07:26:01;9.00;99.90
22139;DHT22;25815;52.582;13.408;2024-03-02T07:28:27;9.00;99.90
22139;DHT22;25815;52.582;13.408;2024-03-02T07:31:03;9.00;99.90
22139;DHT22;25815;52.582;13.408;2024-03-02T07:33:30;9.00;99.90
22139;DHT22;25815;52.582;13.408;2024-03-02T07:35:55;9.10;99.90
22139;DHT22;25815;52.582;13.408;2024-03-02T07:38:22;9.10;99.90
22139;DHT22;25815;52.582;13.408;2024-03-02T07:40:48;9.10;99.90
22139;DHT22;25815;52.582;13.408;2024-03-02T07:43:16;9.10;99.90
22139;DHT22;25815;52.582;13.408;2024-03-02T07:45:42;9.10;99.90
22139;DHT22;25815;52.582;13.408;2024-03-02T07:48:08;9.10;99.90
22139;DHT22;25815;52.582;13.408;2024-03-02T07:50:33;9.10;99.90
22139;DHT22;25815;52.582;13.408;2024-03-02T07:53:01;9.10;99.90
22139;DHT22;25815;52.582;13.408;2024-03-02T07:55:26;9.10;99.90
22139;DHT22;25815;52.582;13.408;2024-03-02T07:57:52;9.20;99.90
22139;DHT22;25815;52.582;13.408;2024-03-02T08:00:18;9.20;99.90
22139;DHT22;25815;52.582;13.408;2024-03-02T08:02:44;9.20;99.90
22139;DHT22;25815;52.582;13.408;2024-03-02T08:05:10;9.20;99.90
22139;DHT22;25815;52.582;13.408;2024-03-02T08:07:35;9.20;99.90
22139;DHT22;25815;52.582;13.408;2024-03-02T08:10:01;9.30;99.90
22139;DHT22;25815;52.582;13.408;2024-03-02T08:12:26;9.30;99.90
22139;DHT22;25815;52.582;13.408;2024-03-02T08:14:52;9.30;99.90
22139;DHT22;25815;52.582;13.408;2024-03-02T08:17:17;9.30;99.90
22139;DHT22;25815;52.582;13.408;2024-03-02T08:19:44;9.30;99.90
22139;DHT22;25815;52.582;13.408;2024-03-02T08:22:10;9.40;99.90
22139;DHT22;25815;52.582;13.408;2024-03-02T08:24:35;9.40;99.90
22139;DHT22;25815;52.582;13.408;2024-03-02T08:27:01;9.40;99.90
22139;DHT22;25815;52.582;13.408;2024-03-02T08:29:27;9.40;99.90
22139;DHT22;25815;52.582;13.408;2024-03-02T08:31:53;9.40;99.90
22139;DHT22;25815;52.582;13.408;2024-03-02T08:34:19;9.40;99.90
22139;DHT22;25815;52.582;13.408;2024-03-02T08:36:45;9.40;99.90
22139;DHT22;25815;52.582;13.408;2024-03-02T08:39:11;9.50;99.90
22139;DHT22;25815;52.582;13.408;2024-03-02T08:41:44;9.50;99.90
22139;DHT22;25815;52.582;13.408;2024-03-02T08:44:10;9.50;99.90
22139;DHT22;25815;52.582;13.408;2024-03-02T08:46:35;9.40;99.90
22139;DHT22;25815;52.582;13.408;2024-03-02T08:49:01;9.50;99.90
22139;DHT22;25815;52.582;13.408;2024-03-02T08:51:27;9.50;99.90
22139;DHT22;25815;52.582;13.408;2024-03-02T08:53:52;9.50;99.90
22139;DHT22;25815;52.582;13.408;2024-03-02T08:56:18;9.50;99.90
22139;DHT22;25815;52.582;13.408;2024-03-02T08:58:45;9.50;99.90
22139;DHT22;25815;52.582;13.408;2024-03-02T09:01:11;9.50;99.90
22139;DHT22;25815;52.582;13.408;2024-03-02T09:03:37;9.40;99.90
22139;DHT22;25815;52.582;13.408;2024-03-02T09:06:03;9.40;99.90
22139;DHT22;25815;52.582;13.408;2024-03-02T09:08:28;9.40;99.90
22139;DHT22;25815;52.582;13.408;2024-03-02T09:10:55;9.40;99.90
22139;DHT22;25815;52.582;13.408;2024-03-02T09:13:21;9.40;99.90
22139;DHT22;25815;52.582;13.408;2024-03-02T09:15:47;9.40;99.90
22139;DHT22;25815;52.582;13.408;2024-03-02T09:18:13;9.40;99.90
22139;DHT22;25815;52.582;13.408;2024-03-02T09:20:39;9.40;99.90
22139;DHT22;25815;52.582;13.408;2024-03-02T09:23:04;9.40;99.90
22139;DHT22;25815;52.582;13.408;2024-03-02T09:25:30;9.40;99.90
22139;DHT22;25815;52.582;13.408;2024-03-02T09:27:55;9.40;99.90
22139;DHT22;25815;52.582;13.408;2024-03-02T09:30:21;9.50;99.90
22139;DHT22;25815;52.582;13.408;2024-03-02T09:32:47;9.50;99.90
22139;DHT22;25815;52.582;13.408;2024-03-02T09:35:13;9.50;99.90
22139;DHT22;25815;52.582;13.408;2024-03-02T09:37:38;9.50;99.90
22139;DHT22;25815;52.582;13.408;2024-03-02T09:40:04;9.50;99.90
22139;DHT22;25815;52.582;13.408;2024-03-02T09:42:32;9.50;99.90
22139;DHT22;25815;52.582;13.408;2024-03-02T09:44:58;9.60;99.90
22139;DHT22;25815;52.582;13.408;2024-03-02T09:47:23;9.70;99.90
22139;DHT22;25815;52.582;13.408;2024-03-02T09:49:49;9.80;99.90
22139;DHT22;25815;52.582;13.408;2024-03-02T09:52:15;9.80;99.90
22139;DHT22;25815;52.582;13.408;2024-03-02T09:54:41;9.90;99.90
22139;DHT22;25815;52.582;13.408;2024-03-02T09:57:07;10.00;99.90
22139;DHT22;25815;52.582;13.408;2024-03-02T09:59:32;10.00;99.90
22139;DHT22;25815;52.582;13.408;2024-03-02T10:01:59;10.10;99.90
22139;DHT22;25815;52.582;13.408;2024-03-02T10:04:30;10.20;99.90
22139;DHT22;25815;52.582;13.408;2024-03-02T10:07:12;10.30;99.90
22139;DHT22;25815;52.582;13.408;2024-03-02T10:09:39;10.40;99.90
22139;DHT22;25815;52.582;13.408;2024-03-02T10:12:06;10.50;99.90
22139;DHT22;25815;52.582;13.408;2024-03-02T10:14:32;10.50;99.90
22139;DHT22;25815;52.582;13.408;2024-03-02T10:17:05;10.50;99.90
22139;DHT22;25815;52.582;13.408;2024-03-02T10:19:31;10.60;99.90
22139;DHT22;25815;52.582;13.408;2024-03-02T10:21:58;10.70;99.90
22139;DHT22;25815;52.582;13.408;2024-03-02T10:24:25;10.80;99.90
22139;DHT22;25815;52.582;13.408;2024-03-02T10:26:51;10.90;99.90
22139;DHT22;25815;52.582;13.408;2024-03-02T10:29:17;11.00;99.90
22139;DHT22;25815;52.582;13.408;2024-03-02T10:31:44;11.10;99.90
22139;DHT22;25815;52.582;13.408;2024-03-02T10:34:13;11.30;99.90
22139;DHT22;25815;52.582;13.408;2024-03-02T10:36:42;11.30;99.90
22139;DHT22;25815;52.582;13.408;2024-03-02T10:39:10;11.40;99.90
22139;DHT22;25815;52.582;13.408;2024-03-02T10:41:37;11.40;99.90
22139;DHT22;25815;52.582;13.408;2024-03-02T10:44:04;11.30;99.90
22139;DHT22;25815;52.582;13.408;2024-03-02T10:46:31;11.40;99.90
22139;DHT22;25815;52.582;13.408;2024-03-02T10:49:01;11.40;99.90
22139;DHT22;25815;52.582;13.408;2024-03-02T10:51:28;11.40;99.90
22139;DHT22;25815;52.582;13.408;2024-03-02T10:53:57;11.50;99.90
22139;DHT22;25815;52.582;13.408;2024-03-02T10:56:30;11.50;99.90
22139;DHT22;25815;52.582;13.408;2024-03-02T10:59:35;11.60;99.90
22139;DHT22;25815;52.582;13.408;2024-03-02T11:02:03;11.70;99.90
22139;DHT22;25815;52.582;13.408;2024-03-02T11:04:30;11.70;99.90
22139;DHT22;25815;52.582;13.408;2024-03-02T11:07:05;11.80;99.90
22139;DHT22;25815;52.582;13.408;2024-03-02T11:09:34;11.80;99.90
22139;DHT22;25815;52.582;13.408;2024-03-02T11:12:15;11.80;99.90
22139;DHT22;25815;52.582;13.408;2024-03-02T11:14:43;11.80;99.90
22139;DHT22;25815;52.582;13.408;2024-03-02T11:17:10;11.80;99.90
22139;DHT22;25815;52.582;13.408;2024-03-02T11:19:38;11.70;99.90
22139;DHT22;25815;52.582;13.408;2024-03-02T11:22:04;11.80;99.90
22139;DHT22;25815;52.582;13.408;2024-03-02T11:24:30;11.70;99.90
22139;DHT22;25815;52.582;13.408;2024-03-02T11:27:04;11.70;99.90
22139;DHT22;25815;52.582;13.408;2024-03-02T11:32:04;11.80;99.90
22139;DHT22;25815;52.582;13.408;2024-03-02T11:34:31;11.80;99.90
22139;DHT22;25815;52.582;13.408;2024-03-02T11:36:57;11.90;99.90
22139;DHT22;25815;52.582;13.408;2024-03-02T11:39:25;12.00;99.90
22139;DHT22;25815;52.582;13.408;2024-03-02T11:41:51;12.00;99.90
22139;DHT22;25815;52.582;13.408;2024-03-02T11:44:16;12.10;99.90
22139;DHT22;25815;52.582;13.408;2024-03-02T11:46:45;12.20;99.90
22139;DHT22;25815;52.582;13.408;2024-03-02T11:49:14;12.40;99.90
22139;DHT22;25815;52.582;13.408;2024-03-02T11:51:49;12.40;99.90
22139;DHT22;25815;52.582;13.408;2024-03-02T11:54:15;12.50;99.90
22139;DHT22;25815;52.582;13.408;2024-03-02T11:56:41;12.60;99.90
22139;DHT22;25815;52.582;13.408;2024-03-02T11:59:07;12.60;99.90
22139;DHT22;25815;52.582;13.408;2024-03-02T12:01:34;12.70;99.90
22139;DHT22;25815;52.582;13.408;2024-03-02T12:04:00;12.70;99.90
22139;DHT22;25815;52.582;13.408;2024-03-02T12:06:28;12.70;99.90
22139;DHT22;25815;52.582;13.408;2024-03-02T12:08:54;12.60;99.90
22139;DHT22;25815;52.582;13.408;2024-03-02T12:11:20;12.60;99.90
22139;DHT22;25815;52.582;13.408;2024-03-02T12:13:52;12.60;99.90
22139;DHT22;25815;52.582;13.408;2024-03-02T12:16:24;12.70;99.90
22139;DHT22;25815;52.582;13.408;2024-03-02T12:18:50;12.60;99.90
22139;DHT22;25815;52.582;13.408;2024-03-02T12:21:15;12.60;99.90
22139;DHT22;25815;52.582;13.408;2024-03-02T12:23:41;12.60;99.90
22139;DHT22;25815;52.582;13.408;2024-03-02T12:26:07;12.60;99.90
22139;DHT22;25815;52.582;13.408;2024-03-02T12:28:34;12.60;99.90
22139;DHT22;25815;52.582;13.408;2024-03-02T12:31:00;12.80;99.90
22139;DHT22;25815;52.582;13.408;2024-03-02T12:33:25;12.90;99.90
22139;DHT22;25815;52.582;13.408;2024-03-02T12:35:52;13.10;99.90
22139;DHT22;25815;52.582;13.408;2024-03-02T12:38:18;13.20;99.90
22139;DHT22;25815;52.582;13.408;2024-03-02T12:40:44;13.30;99.90
22139;DHT22;25815;52.582;13.408;2024-03-02T12:43:12;13.40;99.90
22139;DHT22;25815;52.582;13.408;2024-03-02T12:45:38;13.50;99.90
22139;DHT22;25815;52.582;13.408;2024-03-02T12:48:04;13.70;99.90
22139;DHT22;25815;52.582;13.408;2024-03-02T12:50:30;13.90;99.90
22139;DHT22;25815;52.582;13.408;2024-03-02T12:52:56;14.00;99.90
22139;DHT22;25815;52.582;13.408;2024-03-02T12:55:22;14.00;99.90
22139;DHT22;25815;52.582;13.408;2024-03-02T12:57:50;14.10;99.90
22139;DHT22;25815;52.582;13.408;2024-03-02T13:00:18;14.10;99.90
22139;DHT22;25815;52.582;13.408;2024-03-02T13:02:46;14.20;99.90
22139;DHT22;25815;52.582;13.408;2024-03-02T13:05:11;14.30;99.90
22139;DHT22;25815;52.582;13.408;2024-03-02T13:07:40;14.40;99.90
22139;DHT22;25815;52.582;13.408;2024-03-02T13:10:06;14.60;99.90
22139;DHT22;25815;52.582;13.408;2024-03-02T13:12:35;14.90;99.90
22139;DHT22;25815;52.582;13.408;2024-03-02T13:15:03;15.10;99.90
22139;DHT22;25815;52.582;13.408;2024-03-02T13:17:29;15.50;99.90
22139;DHT22;25815;52.582;13.408;2024-03-02T13:19:59;15.70;99.90
22139;DHT22;25815;52.582;13.408;2024-03-02T13:22:25;15.70;99.90
22139;DHT22;25815;52.582;13.408;2024-03-02T13:24:52;15.60;99.90
22139;DHT22;25815;52.582;13.408;2024-03-02T13:27:19;15.60;99.90
22139;DHT22;25815;52.582;13.408;2024-03-02T13:29:48;15.50;99.90
22139;DHT22;25815;52.582;13.408;2024-03-02T13:32:15;15.50;99.90
22139;DHT22;25815;52.582;13.408;2024-03-02T13:34:40;15.60;99.90
22139;DHT22;25815;52.582;13.408;2024-03-02T13:37:06;15.50;99.90
22139;DHT22;25815;52.582;13.408;2024-03-02T13:39:32;15.50;99.90
22139;DHT22;25815;52.582;13.408;2024-03-02T13:41:58;15.60;99.90
22139;DHT22;25815;52.582;13.408;2024-03-02T13:44:30;15.60;99.90
22139;DHT22;25815;52.582;13.408;2024-03-02T13:46:56;15.60;99.90
22139;DHT22;25815;52.582;13.408;2024-03-02T13:49:22;15.50;99.90
22139;DHT22;25815;52.582;13.408;2024-03-02T13:51:48;15.50;99.90
22139;DHT22;25815;52.582;13.408;2024-03-02T13:54:14;15.60;99.90
22139;DHT22;25815;52.582;13.408;2024-03-02T13:56:40;15.40;99.90
22139;DHT22;25815;52.582;13.408;2024-03-02T13:59:06;15.20;99.90
22139;DHT22;25815;52.582;13.408;2024-03-02T14:01:32;15.20;99.90
22139;DHT22;25815;52.582;13.408;2024-03-02T14:03:58;15.20;99.90
22139;DHT22;25815;52.582;13.408;2024-03-02T14:06:24;15.20;99.90
22139;DHT22;25815;52.582;13.408;2024-03-02T14:08:52;15.20;99.90
22139;DHT22;25815;52.582;13.408;2024-03-02T14:11:18;15.30;99.90
22139;DHT22;25815;52.582;13.408;2024-03-02T14:13:43;15.30;99.90
22139;DHT22;25815;52.582;13.408;2024-03-02T14:16:12;15.20;99.90
22139;DHT22;25815;52.582;13.408;2024-03-02T14:18:38;15.30;99.90
22139;DHT22;25815;52.582;13.408;2024-03-02T14:21:04;15.30;99.90
22139;DHT22;25815;52.582;13.408;2024-03-02T14:23:29;15.30;99.90
22139;DHT22;25815;52.582;13.408;2024-03-02T14:25:55;15.30;99.90
22139;DHT22;25815;52.582;13.408;2024-03-02T14:28:21;15.20;99.90
22139;DHT22;25815;52.582;13.408;2024-03-02T14:30:46;15.20;99.90
22139;DHT22;25815;52.582;13.408;2024-03-02T14:33:12;15.30;99.90
22139;DHT22;25815;52.582;13.408;2024-03-02T14:35:39;15.20;99.90
22139;DHT22;25815;52.582;13.408;2024-03-02T14:38:04;15.20;99.90
22139;DHT22;25815;52.582;13.408;2024-03-02T14:40:30;15.20;99.90
22139;DHT22;25815;52.582;13.408;2024-03-02T14:42:56;15.10;99.90
22139;DHT22;25815;52.582;13.408;2024-03-02T14:45:21;15.00;99.90
22139;DHT22;25815;52.582;13.408;2024-03-02T14:47:47;14.90;99.90
22139;DHT22;25815;52.582;13.408;2024-03-02T14:50:13;14.70;99.90
22139;DHT22;25815;52.582;13.408;2024-03-02T14:52:40;14.60;99.90
22139;DHT22;25815;52.582;13.408;2024-03-02T14:55:06;14.60;99.90
22139;DHT22;25815;52.582;13.408;2024-03-02T14:57:33;14.50;99.90
22139;DHT22;25815;52.582;13.408;2024-03-02T14:59:58;14.50;99.90
22139;DHT22;25815;52.582;13.408;2024-03-02T15:02:24;14.50;99.90
22139;DHT22;25815;52.582;13.408;2024-03-02T15:04:50;14.50;99.90
22139;DHT22;25815;52.582;13.408;2024-03-02T15:07:16;14.40;99.90
22139;DHT22;25815;52.582;13.408;2024-03-02T15:09:41;14.30;99.90
22139;DHT22;25815;52.582;13.408;2024-03-02T15:12:07;14.30;99.90
22139;DHT22;25815;52.582;13.408;2024-03-02T15:14:38;14.20;99.90
22139;DHT22;25815;52.582;13.408;2024-03-02T15:17:06;14.10;99.90
22139;DHT22;25815;52.582;13.408;2024-03-02T15:19:32;14.00;99.90
22139;DHT22;25815;52.582;13.408;2024-03-02T15:21:57;14.10;99.90
22139;DHT22;25815;52.582;13.408;2024-03-02T15:24:23;14.00;99.90
22139;DHT22;25815;52.582;13.408;2024-03-02T15:26:49;14.00;99.90
22139;DHT22;25815;52.582;13.408;2024-03-02T15:29:14;14.00;99.90
22139;DHT22;25815;52.582;13.408;2024-03-02T15:31:40;14.00;99.90